Time;durP1;ratioP1;P1;durP2;ratioP2;P2;SDS_P1;SDS_P2;PMS_P1;PMS_P2;Temp;Humidity;BMP_temperature;BMP_pressure;BME280_temperature;BME280_humidity;BME280_pressure;Samples;Min_cycle;Max_cycle;Signal;HPM_P1;HPM_P2
2022/06/26 00:10:57;;;;;;;1999.90;999.90;;;;;;;;;;5029181;23;20245;-68
2022/06/26 00:13:43;;;;;;;1999.90;999.90;;;;;;;;;;4935869;29;20715;-68
2022/06/26 00:16:27;;;;;;;1999.90;999.90;;;;;;;;;;4937339;29;20291;-68
2022/06/26 00:19:12;;;;;;;1999.90;999.90;;;;;;;;;;4936736;29;20233;-68
2022/06/26 00:21:57;;;;;;;1999.90;999.90;;;;;;;;;;4937401;29;20298;-68
2022/06/26 00:24:42;;;;;;;1999.90;999.90;;;;;;;;;;4937496;29;20349;-68
2022/06/26 00:27:28;;;;;;;1999.90;999.90;;;;;;;;;;4937220;29;20285;-68
2022/06/26 00:30:14;;;;;;;1999.90;999.90;;;;;;;;;;4937172;29;20225;-67
2022/06/26 00:32:59;;;;;;;1999.90;999.90;;;;;;;;;;4936325;29;20419;-68
2022/06/26 00:35:45;;;;;;;1999.90;999.90;;;;;;;;;;4936972;29;20712;-68
2022/06/26 00:38:30;;;;;;;1999.90;999.90;;;;;;;;;;4936811;29;20254;-67
2022/06/26 00:41:15;;;;;;;1999.90;999.90;;;;;;;;;;4936644;29;20687;-68
2022/06/26 00:44:01;;;;;;;1999.90;999.90;;;;;;;;;;4937092;29;20210;-68
2022/06/26 00:46:46;;;;;;;1999.90;999.90;;;;;;;;;;4937191;29;20215;-68
2022/06/26 00:49:31;;;;;;;1999.90;999.90;;;;;;;;;;4936534;29;20228;-68
2022/06/26 00:52:16;;;;;;;1999.90;999.90;;;;;;;;;;4936227;29;20262;-68
2022/06/26 00:55:01;;;;;;;1999.90;999.90;;;;;;;;;;4936823;29;20788;-68
2022/06/26 00:57:48;;;;;;;1999.90;999.90;;;;;;;;;;4936362;29;20730;-68
2022/06/26 01:00:34;;;;;;;1999.90;999.90;;;;;;;;;;4936670;29;20234;-68
2022/06/26 01:03:19;;;;;;;1999.90;999.90;;;;;;;;;;4936632;29;20361;-68
2022/06/26 01:06:06;;;;;;;1999.90;999.90;;;;;;;;;;4936593;29;20209;-68
2022/06/26 01:08:52;;;;;;;1999.90;999.90;;;;;;;;;;4937014;29;20208;-67
2022/06/26 01:11:37;;;;;;;1999.90;999.90;;;;;;;;;;4941619;29;20206;-68
2022/06/26 01:14:22;;;;;;;1999.90;999.90;;;;;;;;;;4947564;29;20246;-68
2022/06/26 01:17:09;;;;;;;1999.90;999.90;;;;;;;;;;4943021;29;20217;-68
2022/06/26 01:19:55;;;;;;;1999.90;999.90;;;;;;;;;;4936476;29;20417;-68
2022/06/26 01:22:41;;;;;;;1999.90;999.90;;;;;;;;;;4936449;29;20588;-68
2022/06/26 01:25:27;;;;;;;1999.90;999.90;;;;;;;;;;4936244;29;20278;-67
2022/06/26 01:28:13;;;;;;;1999.90;999.90;;;;;;;;;;4935886;29;20809;-67
2022/06/26 01:30:59;;;;;;;1999.90;999.90;;;;;;;;;;4935968;29;20224;-67
2022/06/26 01:33:44;;;;;;;1999.90;999.90;;;;;;;;;;4942093;29;20743;-67
2022/06/26 01:36:29;;;;;;;1999.90;999.90;;;;;;;;;;4952981;29;20296;-67
2022/06/26 01:39:18;;;;;;;1999.90;999.90;;;;;;;;;;4954476;29;20832;-68
2022/06/26 01:42:03;;;;;;;1999.90;999.90;;;;;;;;;;4944164;29;20213;-68
2022/06/26 01:44:49;;;;;;;1999.90;999.90;;;;;;;;;;4936130;29;20209;-67
2022/06/26 01:47:34;;;;;;;1999.90;999.90;;;;;;;;;;4935894;29;20748;-68
2022/06/26 01:50:19;;;;;;;1999.90;999.90;;;;;;;;;;4935786;29;20636;-67
2022/06/26 01:53:05;;;;;;;1999.90;999.90;;;;;;;;;;4929238;29;20293;-68
2022/06/26 01:55:51;;;;;;;1999.90;999.90;;;;;;;;;;4936231;29;20281;-68
2022/06/26 01:58:37;;;;;;;1999.90;999.90;;;;;;;;;;4934881;29;20221;-68
2022/06/26 02:01:22;;;;;;;1999.90;999.90;;;;;;;;;;4935549;29;20233;-68
2022/06/26 02:04:07;;;;;;;1999.90;999.90;;;;;;;;;;4935178;29;20210;-68
2022/06/26 02:06:52;;;;;;;1999.90;999.90;;;;;;;;;;4935042;29;20415;-68
2022/06/26 02:15:45;;;;;;;1999.90;999.90;;;;;;;;;;4923799;29;20224;-68
2022/06/26 02:18:31;;;;;;;1999.90;999.90;;;;;;;;;;4934892;29;20229;-68
2022/06/26 02:21:16;;;;;;;1999.90;999.90;;;;;;;;;;4935280;29;20703;-67
2022/06/26 02:24:01;;;;;;;1999.90;999.90;;;;;;;;;;4935182;29;20213;-68
2022/06/26 02:26:46;;;;;;;1999.90;999.90;;;;;;;;;;4935134;29;20228;-68
2022/06/26 02:29:32;;;;;;;1999.90;999.90;;;;;;;;;;4934781;29;20221;-68
2022/06/26 02:32:17;;;;;;;1999.90;999.90;;;;;;;;;;4934880;29;20213;-68
2022/06/26 02:35:02;;;;;;;1999.90;999.90;;;;;;;;;;4934840;29;20217;-68
2022/06/26 02:37:47;;;;;;;1999.90;999.90;;;;;;;;;;4934450;29;20204;-68
2022/06/26 02:40:32;;;;;;;1999.90;999.90;;;;;;;;;;4934890;29;20301;-68
2022/06/26 02:43:18;;;;;;;1999.90;999.90;;;;;;;;;;4934932;29;20628;-67
2022/06/26 02:46:04;;;;;;;1999.90;999.90;;;;;;;;;;4935076;29;20217;-68
2022/06/26 02:48:50;;;;;;;1999.90;999.90;;;;;;;;;;4934473;29;20266;-68
2022/06/26 02:51:34;;;;;;;1999.90;999.90;;;;;;;;;;4934825;29;20375;-68
2022/06/26 02:54:19;;;;;;;1999.90;999.90;;;;;;;;;;4933465;29;20418;-68
2022/06/26 02:57:04;;;;;;;1999.90;999.90;;;;;;;;;;4934892;29;20212;-68
2022/06/26 02:59:51;;;;;;;1999.90;999.90;;;;;;;;;;4934588;29;20233;-68
2022/06/26 03:02:37;;;;;;;1999.90;999.90;;;;;;;;;;4934885;29;20581;-68
2022/06/26 03:05:22;;;;;;;1999.90;999.90;;;;;;;;;;4934843;29;20213;-68
2022/06/26 03:08:07;;;;;;;1999.90;999.90;;;;;;;;;;4934454;29;20206;-68
2022/06/26 03:10:52;;;;;;;1999.90;999.90;;;;;;;;;;4934625;29;20354;-68
2022/06/26 03:13:37;;;;;;;1999.90;999.90;;;;;;;;;;4934768;29;20209;-68
2022/06/26 03:16:22;;;;;;;1999.90;999.90;;;;;;;;;;4935647;29;20208;-68
2022/06/26 03:19:09;;;;;;;1999.90;999.90;;;;;;;;;;4938179;29;20611;-68
2022/06/26 03:21:54;;;;;;;1999.90;999.90;;;;;;;;;;4941067;29;20221;-68
2022/06/26 03:24:39;;;;;;;1999.90;999.90;;;;;;;;;;4947886;29;20577;-68
2022/06/26 03:27:24;;;;;;;1999.90;999.90;;;;;;;;;;4957735;29;20258;-68
2022/06/26 03:30:09;;;;;;;1999.90;999.90;;;;;;;;;;4940264;29;20727;-68
2022/06/26 03:32:54;;;;;;;1999.90;999.90;;;;;;;;;;4939579;29;20221;-68
2022/06/26 03:35:41;;;;;;;1999.90;999.90;;;;;;;;;;4938233;29;20217;-67
2022/06/26 03:38:25;;;;;;;1999.90;999.90;;;;;;;;;;4937838;29;20428;-67
2022/06/26 03:41:11;;;;;;;1999.90;999.90;;;;;;;;;;4943040;29;20286;-68
2022/06/26 03:43:58;;;;;;;1999.90;999.90;;;;;;;;;;4944535;29;20260;-68
2022/06/26 03:46:43;;;;;;;1999.90;999.90;;;;;;;;;;4950494;29;20293;-68
2022/06/26 03:49:27;;;;;;;1999.90;999.90;;;;;;;;;;4944222;29;20229;-68
2022/06/26 03:52:14;;;;;;;1999.90;999.90;;;;;;;;;;4952959;29;20244;-68
2022/06/26 03:54:59;;;;;;;1999.90;999.90;;;;;;;;;;4939634;29;20213;-68
2022/06/26 03:57:43;;;;;;;1999.90;999.90;;;;;;;;;;4937473;29;20208;-68
2022/06/26 04:00:28;;;;;;;1999.90;999.90;;;;;;;;;;4937460;29;20232;-68
2022/06/26 04:03:13;;;;;;;1999.90;999.90;;;;;;;;;;4937752;29;20206;-68
2022/06/26 04:05:59;;;;;;;1999.90;999.90;;;;;;;;;;4936609;29;20302;-68
2022/06/26 04:08:47;;;;;;;1999.90;999.90;;;;;;;;;;4948050;29;20332;-68
2022/06/26 04:11:32;;;;;;;1999.90;999.90;;;;;;;;;;4956894;29;20270;-68
2022/06/26 04:14:17;;;;;;;1999.90;999.90;;;;;;;;;;4938831;29;20219;-68
2022/06/26 04:17:02;;;;;;;1999.90;999.90;;;;;;;;;;4918486;29;20259;-68
2022/06/26 04:19:49;;;;;;;1999.90;999.90;;;;;;;;;;4917854;29;20606;-68
2022/06/26 04:22:34;;;;;;;1999.90;999.90;;;;;;;;;;4921849;29;20213;-68
2022/06/26 04:25:21;;;;;;;1999.90;999.90;;;;;;;;;;4948430;29;20212;-68
2022/06/26 04:28:06;;;;;;;1999.90;999.90;;;;;;;;;;4954623;28;20506;-67
2022/06/26 04:30:51;;;;;;;1999.90;999.90;;;;;;;;;;4948247;29;20240;-68
2022/06/26 04:33:36;;;;;;;1999.90;999.90;;;;;;;;;;4955130;29;20212;-67
2022/06/26 04:36:21;;;;;;;1999.90;999.90;;;;;;;;;;4943711;29;20683;-68
2022/06/26 04:39:06;;;;;;;1999.90;999.90;;;;;;;;;;4947525;29;20315;-67
2022/06/26 04:41:52;;;;;;;1999.90;999.90;;;;;;;;;;4939512;29;20214;-68
2022/06/26 04:44:37;;;;;;;1999.90;999.90;;;;;;;;;;4930302;29;20217;-67
2022/06/26 04:47:22;;;;;;;1999.90;999.90;;;;;;;;;;4940646;29;20337;-68
2022/06/26 04:50:08;;;;;;;1999.90;999.90;;;;;;;;;;4934998;29;20233;-68
2022/06/26 04:52:53;;;;;;;1999.90;999.90;;;;;;;;;;4932514;29;20723;-68
2022/06/26 04:55:38;;;;;;;1999.90;999.90;;;;;;;;;;4933785;29;20370;-68
2022/06/26 04:58:24;;;;;;;1999.90;999.90;;;;;;;;;;4940056;29;20607;-67
2022/06/26 05:01:09;;;;;;;1999.90;999.90;;;;;;;;;;4947338;29;20216;-67
2022/06/26 05:03:55;;;;;;;1999.90;999.90;;;;;;;;;;4946420;29;20222;-67
2022/06/26 05:06:40;;;;;;;1999.90;999.90;;;;;;;;;;4947711;29;20724;-68
2022/06/26 05:09:26;;;;;;;1999.90;999.90;;;;;;;;;;4935315;29;20251;-71
2022/06/26 05:12:11;;;;;;;1999.90;999.90;;;;;;;;;;4935949;29;20230;-69
2022/06/26 05:14:58;;;;;;;1999.90;999.90;;;;;;;;;;4933473;29;20494;-71
2022/06/26 05:17:43;;;;;;;1999.90;999.90;;;;;;;;;;4933094;29;20221;-70
2022/06/26 05:20:28;;;;;;;1999.90;999.90;;;;;;;;;;4935395;29;20371;-71
2022/06/26 05:23:14;;;;;;;1999.90;999.90;;;;;;;;;;4944157;29;20234;-71
2022/06/26 05:25:59;;;;;;;1999.90;999.90;;;;;;;;;;4952360;29;20211;-69
2022/06/26 05:28:45;;;;;;;1999.90;999.90;;;;;;;;;;4931436;29;20889;-71
2022/06/26 05:31:31;;;;;;;1999.90;999.90;;;;;;;;;;4935357;29;20347;-72
2022/06/26 05:34:15;;;;;;;1999.90;999.90;;;;;;;;;;4936019;29;20264;-72
2022/06/26 05:37:00;;;;;;;1999.90;999.90;;;;;;;;;;4938520;29;20209;-71
2022/06/26 05:39:45;;;;;;;1999.90;999.90;;;;;;;;;;4940274;28;20738;-71
2022/06/26 05:42:30;;;;;;;1999.90;999.90;;;;;;;;;;4952985;29;20211;-71
2022/06/26 05:45:15;;;;;;;1999.90;999.90;;;;;;;;;;4949421;29;20220;-70
2022/06/26 05:48:01;;;;;;;1999.90;999.90;;;;;;;;;;4953353;29;20212;-72
2022/06/26 05:50:46;;;;;;;1999.90;999.90;;;;;;;;;;4954622;29;20247;-71
2022/06/26 05:53:31;;;;;;;1999.90;999.90;;;;;;;;;;4941780;29;20260;-70
2022/06/26 05:56:17;;;;;;;1999.90;999.90;;;;;;;;;;4947048;29;20588;-69
2022/06/26 05:59:02;;;;;;;1999.90;999.90;;;;;;;;;;4929781;29;20621;-68
2022/06/26 06:01:47;;;;;;;1999.90;999.90;;;;;;;;;;4950162;29;20457;-70
2022/06/26 06:04:34;;;;;;;1999.90;999.90;;;;;;;;;;4941867;29;20307;-70
2022/06/26 06:07:19;;;;;;;1999.90;999.90;;;;;;;;;;4934166;29;20210;-67
2022/06/26 06:10:05;;;;;;;1999.90;999.90;;;;;;;;;;4939568;29;20233;-69
2022/06/26 06:12:51;;;;;;;1999.90;999.90;;;;;;;;;;4948944;29;20218;-69
2022/06/26 06:15:36;;;;;;;1999.90;999.90;;;;;;;;;;4945095;29;20294;-70
2022/06/26 06:18:21;;;;;;;1999.90;999.90;;;;;;;;;;4955259;29;20213;-69
2022/06/26 06:21:07;;;;;;;1999.90;999.90;;;;;;;;;;4935248;29;20242;-69
2022/06/26 06:23:52;;;;;;;1999.90;999.90;;;;;;;;;;4940261;29;20214;-70
2022/06/26 06:26:37;;;;;;;1999.90;999.90;;;;;;;;;;4955922;29;20210;-70
2022/06/26 06:29:23;;;;;;;1999.90;999.90;;;;;;;;;;4954594;29;20225;-70
2022/06/26 06:32:08;;;;;;;1999.90;999.90;;;;;;;;;;4954519;29;20420;-69
2022/06/26 06:34:53;;;;;;;1999.90;999.90;;;;;;;;;;4955149;29;20214;-69
2022/06/26 06:37:40;;;;;;;1999.90;999.90;;;;;;;;;;4955328;29;20246;-70
2022/06/26 06:40:25;;;;;;;1999.90;999.90;;;;;;;;;;4942861;29;20725;-69
2022/06/26 06:43:11;;;;;;;1999.90;999.90;;;;;;;;;;4946526;29;20216;-71
2022/06/26 06:45:56;;;;;;;1999.90;999.90;;;;;;;;;;4936422;29;20213;-69
2022/06/26 06:48:41;;;;;;;1999.90;999.90;;;;;;;;;;4931189;29;20561;-70
2022/06/26 06:51:26;;;;;;;1999.90;999.90;;;;;;;;;;4935212;29;20205;-70
2022/06/26 06:54:12;;;;;;;1999.90;999.90;;;;;;;;;;4939555;29;20216;-70
2022/06/26 06:56:57;;;;;;;1999.90;999.90;;;;;;;;;;4923129;29;20230;-70
2022/06/26 06:59:42;;;;;;;1999.90;999.90;;;;;;;;;;4936957;29;20228;-71
2022/06/26 07:02:27;;;;;;;1999.90;999.90;;;;;;;;;;4931467;29;20281;-69
2022/06/26 07:05:11;;;;;;;1999.90;999.90;;;;;;;;;;4930640;29;20293;-70
2022/06/26 07:07:56;;;;;;;1999.90;999.90;;;;;;;;;;4929144;29;20585;-72
2022/06/26 07:10:43;;;;;;;1999.90;999.90;;;;;;;;;;4932935;29;20235;-70
2022/06/26 07:13:28;;;;;;;1999.90;999.90;;;;;;;;;;4932048;29;20322;-70
2022/06/26 07:16:13;;;;;;;1999.90;999.90;;;;;;;;;;4930619;29;20569;-70
2022/06/26 07:19:01;;;;;;;1999.90;999.90;;;;;;;;;;4932154;29;20209;-70
2022/06/26 07:21:46;;;;;;;1999.90;999.90;;;;;;;;;;4934471;29;20221;-70
2022/06/26 07:24:30;;;;;;;1999.90;999.90;;;;;;;;;;4933464;29;20300;-69
2022/06/26 07:27:17;;;;;;;1999.90;999.90;;;;;;;;;;4932781;29;20221;-71
2022/06/26 07:30:02;;;;;;;1999.90;999.90;;;;;;;;;;4931623;29;20316;-70
2022/06/26 07:32:47;;;;;;;1999.90;999.90;;;;;;;;;;4932367;29;20210;-70
2022/06/26 07:35:33;;;;;;;1999.90;999.90;;;;;;;;;;4930221;29;20533;-69
2022/06/26 07:38:17;;;;;;;1999.90;999.90;;;;;;;;;;4923232;29;20225;-70
2022/06/26 07:41:02;;;;;;;1999.90;999.90;;;;;;;;;;4931900;29;20237;-70
2022/06/26 07:43:49;;;;;;;1999.90;999.90;;;;;;;;;;4926108;29;20217;-70
2022/06/26 07:46:34;;;;;;;1999.90;999.90;;;;;;;;;;4931051;29;20228;-69
2022/06/26 07:49:19;;;;;;;1999.90;999.90;;;;;;;;;;4925020;29;20354;-70
2022/06/26 07:52:05;;;;;;;1999.90;999.90;;;;;;;;;;4926807;29;20222;-71
2022/06/26 07:54:50;;;;;;;1999.90;999.90;;;;;;;;;;4928954;29;20217;-70
2022/06/26 07:57:35;;;;;;;1999.90;999.90;;;;;;;;;;4929814;29;20257;-70
2022/06/26 08:00:21;;;;;;;1999.90;999.90;;;;;;;;;;4929059;29;20232;-70
2022/06/26 08:03:06;;;;;;;1999.90;999.90;;;;;;;;;;4931496;29;20225;-70
2022/06/26 08:05:52;;;;;;;1999.90;999.90;;;;;;;;;;4934537;29;20226;-70
2022/06/26 08:08:37;;;;;;;1999.90;999.90;;;;;;;;;;4933437;29;20607;-70
2022/06/26 08:11:22;;;;;;;1999.90;999.90;;;;;;;;;;4933090;29;20582;-70
2022/06/26 08:14:08;;;;;;;1999.90;999.90;;;;;;;;;;4932907;29;20647;-70
2022/06/26 08:16:54;;;;;;;1999.90;999.90;;;;;;;;;;4932794;29;20931;-69
2022/06/26 08:19:39;;;;;;;1999.90;999.90;;;;;;;;;;4934042;29;20964;-70
2022/06/26 08:22:27;;;;;;;1999.90;999.90;;;;;;;;;;4935363;29;20285;-70
2022/06/26 08:25:12;;;;;;;1999.90;999.90;;;;;;;;;;4933434;29;20333;-70
2022/06/26 08:27:59;;;;;;;1999.90;999.90;;;;;;;;;;4932680;29;20221;-70
2022/06/26 08:30:44;;;;;;;1999.90;999.90;;;;;;;;;;4938173;29;20228;-70
2022/06/26 08:33:30;;;;;;;1999.90;999.90;;;;;;;;;;4937480;29;20217;-71
2022/06/26 08:36:16;;;;;;;1999.90;999.90;;;;;;;;;;4931124;29;20212;-71
2022/06/26 08:39:04;;;;;;;1999.90;999.90;;;;;;;;;;4931345;29;20233;-70
2022/06/26 08:41:49;;;;;;;1999.90;999.90;;;;;;;;;;4930356;29;20233;-69
2022/06/26 08:44:34;;;;;;;1999.90;999.90;;;;;;;;;;4933817;29;20300;-70
2022/06/26 08:47:20;;;;;;;1999.90;999.90;;;;;;;;;;4935265;29;20221;-70
2022/06/26 08:50:08;;;;;;;1999.90;999.90;;;;;;;;;;4930204;29;20878;-70
2022/06/26 08:52:53;;;;;;;1999.90;999.90;;;;;;;;;;4930736;29;20210;-69
2022/06/26 08:55:38;;;;;;;1999.90;999.90;;;;;;;;;;4934087;29;20712;-70
2022/06/26 08:58:24;;;;;;;1999.90;999.90;;;;;;;;;;4931973;29;20205;-70
2022/06/26 09:01:09;;;;;;;1999.90;999.90;;;;;;;;;;4927618;29;20327;-70
2022/06/26 09:03:54;;;;;;;1999.90;999.90;;;;;;;;;;4933645;29;20209;-70
2022/06/26 09:06:40;;;;;;;1999.90;999.90;;;;;;;;;;4936645;29;20415;-69
2022/06/26 09:09:27;;;;;;;1999.90;999.90;;;;;;;;;;4937167;29;20342;-71
2022/06/26 09:12:12;;;;;;;1999.90;999.90;;;;;;;;;;4936348;29;20229;-70
2022/06/26 09:14:58;;;;;;;1999.90;999.90;;;;;;;;;;4931656;29;20217;-70
2022/06/26 09:17:43;;;;;;;1999.90;999.90;;;;;;;;;;4933232;29;20217;-70
2022/06/26 09:20:28;;;;;;;1999.90;999.90;;;;;;;;;;4931747;29;20491;-71
2022/06/26 09:23:15;;;;;;;1999.90;999.90;;;;;;;;;;4936490;29;20224;-70
2022/06/26 09:26:01;;;;;;;1999.90;999.90;;;;;;;;;;4932679;29;20206;-71
2022/06/26 09:28:46;;;;;;;1999.90;999.90;;;;;;;;;;4932280;29;20244;-70
2022/06/26 09:31:31;;;;;;;1999.90;999.90;;;;;;;;;;4928182;29;20328;-71
2022/06/26 09:34:23;;;;;;;1999.90;999.90;;;;;;;;;;4930170;29;20227;-70
2022/06/26 09:37:10;;;;;;;1999.90;999.90;;;;;;;;;;4932285;29;20272;-71
2022/06/26 09:40:01;;;;;;;1999.90;999.90;;;;;;;;;;4930785;29;20233;-71
2022/06/26 09:42:47;;;;;;;1999.90;999.90;;;;;;;;;;4930601;29;20284;-69
2022/06/26 09:45:39;;;;;;;1999.90;999.90;;;;;;;;;;4931590;29;20585;-72
2022/06/26 09:48:24;;;;;;;1999.90;999.90;;;;;;;;;;4934622;29;20583;-71
2022/06/26 09:51:10;;;;;;;1999.90;999.90;;;;;;;;;;4932643;29;20503;-71
2022/06/26 09:53:55;;;;;;;1999.90;999.90;;;;;;;;;;4930676;29;20220;-70
2022/06/26 09:56:42;;;;;;;1999.90;999.90;;;;;;;;;;4933735;29;20260;-70
2022/06/26 09:59:27;;;;;;;1999.90;999.90;;;;;;;;;;4931323;29;20222;-71
2022/06/26 10:08:20;;;;;;;1999.90;999.90;;;;;;;;;;4932949;29;20211;-70
2022/06/26 10:11:05;;;;;;;1999.90;999.90;;;;;;;;;;4927647;29;20235;-70
2022/06/26 10:13:53;;;;;;;1999.90;999.90;;;;;;;;;;4929074;29;20222;-70
2022/06/26 10:17:06;;;;;;;1999.90;999.90;;;;;;;;;;4930986;29;20292;-70
2022/06/26 10:19:52;;;;;;;1999.90;999.90;;;;;;;;;;4931447;29;20353;-70
2022/06/26 10:22:38;;;;;;;1999.90;999.90;;;;;;;;;;4933068;29;20228;-70
2022/06/26 10:25:24;;;;;;;1999.90;999.90;;;;;;;;;;4930483;29;20224;-70
2022/06/26 10:28:18;;;;;;;1999.90;999.90;;;;;;;;;;4931153;29;20224;-70
2022/06/26 10:31:08;;;;;;;1999.90;999.90;;;;;;;;;;4932539;29;20350;-71
2022/06/26 10:33:53;;;;;;;1999.90;999.90;;;;;;;;;;4931119;29;20337;-70
2022/06/26 10:36:38;;;;;;;1999.90;999.90;;;;;;;;;;4927655;29;20446;-70
2022/06/26 10:39:23;;;;;;;1999.90;999.90;;;;;;;;;;4928963;29;20715;-70
2022/06/26 10:45:14;;;;;;;1999.90;999.90;;;;;;;;;;4928764;29;20211;-70
2022/06/26 10:48:01;;;;;;;1999.90;999.90;;;;;;;;;;4925967;29;20225;-69
2022/06/26 10:50:56;;;;;;;1999.90;999.90;;;;;;;;;;4928355;29;20288;-71
2022/06/26 10:53:41;;;;;;;1999.90;999.90;;;;;;;;;;4928943;29;20228;-71
2022/06/26 10:56:26;;;;;;;1999.90;999.90;;;;;;;;;;4927842;29;20209;-70
2022/06/26 10:59:11;;;;;;;1999.90;999.90;;;;;;;;;;4929904;29;20238;-70
2022/06/26 11:01:55;;;;;;;1999.90;999.90;;;;;;;;;;4926636;29;20240;-68
2022/06/26 11:04:45;;;;;;;1999.90;999.90;;;;;;;;;;4932351;29;20229;-70
2022/06/26 11:07:40;;;;;;;1999.90;999.90;;;;;;;;;;4933071;29;20232;-69
2022/06/26 11:10:26;;;;;;;1999.90;999.90;;;;;;;;;;4888774;29;1084679;-69
2022/06/26 11:13:10;;;;;;;1999.90;999.90;;;;;;;;;;4936698;29;20216;-69
2022/06/26 11:15:55;;;;;;;1999.90;999.90;;;;;;;;;;4938412;29;20226;-68
2022/06/26 11:18:40;;;;;;;1999.90;999.90;;;;;;;;;;4930382;29;20214;-69
2022/06/26 11:21:28;;;;;;;1999.90;999.90;;;;;;;;;;4931998;29;20218;-69
2022/06/26 11:24:13;;;;;;;1999.90;999.90;;;;;;;;;;4941729;29;21008;-69
2022/06/26 11:26:58;;;;;;;1999.90;999.90;;;;;;;;;;4939248;29;20214;-69
2022/06/26 11:29:43;;;;;;;1999.90;999.90;;;;;;;;;;4944640;29;20228;-70
2022/06/26 11:32:28;;;;;;;1999.90;999.90;;;;;;;;;;4940655;29;20289;-70
2022/06/26 11:35:13;;;;;;;1999.90;999.90;;;;;;;;;;4941744;29;20239;-70
2022/06/26 11:37:59;;;;;;;1999.90;999.90;;;;;;;;;;4933182;29;20709;-69
2022/06/26 11:40:45;;;;;;;1999.90;999.90;;;;;;;;;;4949936;29;20239;-70
2022/06/26 11:43:30;;;;;;;1999.90;999.90;;;;;;;;;;4949439;29;20212;-69
2022/06/26 11:46:15;;;;;;;1999.90;999.90;;;;;;;;;;4945956;29;20703;-69
2022/06/26 11:49:00;;;;;;;1999.90;999.90;;;;;;;;;;4928075;29;20297;-70
2022/06/26 11:51:46;;;;;;;1999.90;999.90;;;;;;;;;;4945342;29;20698;-68
2022/06/26 11:54:33;;;;;;;1999.90;999.90;;;;;;;;;;4947219;29;20442;-70
2022/06/26 11:57:18;;;;;;;1999.90;999.90;;;;;;;;;;4938478;29;20300;-69
2022/06/26 12:00:05;;;;;;;1999.90;999.90;;;;;;;;;;4934995;29;20296;-71
2022/06/26 12:02:50;;;;;;;1999.90;999.90;;;;;;;;;;4932506;29;20346;-71
2022/06/26 12:05:36;;;;;;;1999.90;999.90;;;;;;;;;;4934388;29;20232;-71
2022/06/26 12:08:21;;;;;;;1999.90;999.90;;;;;;;;;;4936190;29;20338;-70
2022/06/26 12:11:07;;;;;;;1999.90;999.90;;;;;;;;;;4927613;29;20442;-70
2022/06/26 12:13:52;;;;;;;1999.90;999.90;;;;;;;;;;4932353;29;20260;-70
2022/06/26 12:16:44;;;;;;;1999.90;999.90;;;;;;;;;;4932547;29;20220;-69
2022/06/26 12:19:37;;;;;;;1999.90;999.90;;;;;;;;;;4936303;29;20231;-70
2022/06/26 12:22:29;;;;;;;1999.90;999.90;;;;;;;;;;4931094;29;20262;-70
2022/06/26 12:25:25;;;;;;;1999.90;999.90;;;;;;;;;;4945855;29;20219;-70
2022/06/26 12:28:22;;;;;;;1999.90;999.90;;;;;;;;;;4950301;28;20217;-70
2022/06/26 12:31:07;;;;;;;1999.90;999.90;;;;;;;;;;4937213;29;20228;-70
2022/06/26 12:33:52;;;;;;;1999.90;999.90;;;;;;;;;;4941139;29;20208;-68
2022/06/26 12:36:38;;;;;;;1999.90;999.90;;;;;;;;;;4949191;29;20434;-69
2022/06/26 12:39:23;;;;;;;1999.90;999.90;;;;;;;;;;4952288;29;20237;-70
2022/06/26 12:42:08;;;;;;;1999.90;999.90;;;;;;;;;;4953304;29;20309;-69
2022/06/26 12:44:55;;;;;;;1999.90;999.90;;;;;;;;;;4939936;29;20323;-68
2022/06/26 12:47:40;;;;;;;1999.90;999.90;;;;;;;;;;4948454;28;20576;-70
2022/06/26 12:50:25;;;;;;;1999.90;999.90;;;;;;;;;;4957730;29;20244;-68
2022/06/26 12:53:10;;;;;;;1999.90;999.90;;;;;;;;;;4956500;29;20487;-70
2022/06/26 12:55:56;;;;;;;1999.90;999.90;;;;;;;;;;4947896;29;20605;-69
2022/06/26 12:58:41;;;;;;;1999.90;999.90;;;;;;;;;;4956682;29;20258;-69
2022/06/26 13:01:28;;;;;;;1999.90;999.90;;;;;;;;;;4941078;29;20326;-69
2022/06/26 13:04:13;;;;;;;1999.90;999.90;;;;;;;;;;4939702;29;20277;-67
2022/06/26 13:06:58;;;;;;;1999.90;999.90;;;;;;;;;;4932701;29;20706;-70
2022/06/26 13:09:43;;;;;;;1999.90;999.90;;;;;;;;;;4937406;29;20333;-71
2022/06/26 13:12:28;;;;;;;1999.90;999.90;;;;;;;;;;4936049;29;20215;-69
2022/06/26 13:15:13;;;;;;;1999.90;999.90;;;;;;;;;;4937137;29;20218;-70
2022/06/26 13:17:59;;;;;;;1999.90;999.90;;;;;;;;;;4934933;29;20205;-69
2022/06/26 13:20:44;;;;;;;1999.90;999.90;;;;;;;;;;4931481;29;20254;-69
2022/06/26 13:23:29;;;;;;;1999.90;999.90;;;;;;;;;;4942652;29;20212;-69
2022/06/26 13:26:14;;;;;;;1999.90;999.90;;;;;;;;;;4939980;29;20223;-70
2022/06/26 13:28:59;;;;;;;1999.90;999.90;;;;;;;;;;4933205;29;20222;-70
2022/06/26 13:31:46;;;;;;;1999.90;999.90;;;;;;;;;;4920309;29;20770;-69
2022/06/26 13:34:32;;;;;;;1999.90;999.90;;;;;;;;;;4930575;29;20230;-69
2022/06/26 13:37:18;;;;;;;1999.90;999.90;;;;;;;;;;4927972;29;20220;-69
2022/06/26 13:40:03;;;;;;;1999.90;999.90;;;;;;;;;;4929942;29;20573;-69
2022/06/26 13:42:48;;;;;;;1999.90;999.90;;;;;;;;;;4934926;29;20239;-68
2022/06/26 13:45:33;;;;;;;1999.90;999.90;;;;;;;;;;4931998;29;20219;-70
2022/06/26 13:48:18;;;;;;;1999.90;999.90;;;;;;;;;;4927754;29;20597;-68
2022/06/26 13:51:05;;;;;;;1999.90;999.90;;;;;;;;;;4932886;29;20250;-68
2022/06/26 13:53:50;;;;;;;1999.90;999.90;;;;;;;;;;4935156;29;20271;-69
2022/06/26 13:56:35;;;;;;;1999.90;999.90;;;;;;;;;;4946456;29;20654;-69
2022/06/26 13:59:20;;;;;;;1999.90;999.90;;;;;;;;;;4941761;29;20266;-70
2022/06/26 14:02:05;;;;;;;1999.90;999.90;;;;;;;;;;4933937;29;20239;-70
2022/06/26 14:04:50;;;;;;;1999.90;999.90;;;;;;;;;;4929902;29;20226;-70
2022/06/26 14:07:36;;;;;;;1999.90;999.90;;;;;;;;;;4944552;29;20243;-70
2022/06/26 14:10:21;;;;;;;1999.90;999.90;;;;;;;;;;4945390;29;20568;-71
2022/06/26 14:13:06;;;;;;;1999.90;999.90;;;;;;;;;;4936659;29;20313;-72
2022/06/26 14:15:52;;;;;;;1999.90;999.90;;;;;;;;;;4940908;29;20211;-71
2022/06/26 14:18:37;;;;;;;1999.90;999.90;;;;;;;;;;4934733;29;20218;-72
2022/06/26 14:21:22;;;;;;;1999.90;999.90;;;;;;;;;;4951509;29;20221;-72
2022/06/26 14:27:11;;;;;;;1999.90;999.90;;;;;;;;;;4953472;29;20475;-70
2022/06/26 14:29:56;;;;;;;1999.90;999.90;;;;;;;;;;4954159;29;20710;-70
2022/06/26 14:32:41;;;;;;;1999.90;999.90;;;;;;;;;;4954515;29;20226;-71
2022/06/26 14:35:26;;;;;;;1999.90;999.90;;;;;;;;;;4954672;29;20669;-71
2022/06/26 14:38:11;;;;;;;1999.90;999.90;;;;;;;;;;4953944;29;20210;-72
2022/06/26 14:40:59;;;;;;;1999.90;999.90;;;;;;;;;;4954434;29;20280;-71
2022/06/26 14:43:44;;;;;;;1999.90;999.90;;;;;;;;;;4954494;29;20245;-71
2022/06/26 14:46:30;;;;;;;1999.90;999.90;;;;;;;;;;4954880;29;20211;-70
2022/06/26 14:49:15;;;;;;;1999.90;999.90;;;;;;;;;;4954308;29;20590;-71
2022/06/26 14:52:00;;;;;;;1999.90;999.90;;;;;;;;;;4954202;29;20216;-71
2022/06/26 14:54:45;;;;;;;1999.90;999.90;;;;;;;;;;4954524;29;20204;-71
2022/06/26 14:57:32;;;;;;;1999.90;999.90;;;;;;;;;;4953681;29;20793;-71
2022/06/26 15:00:17;;;;;;;1999.90;999.90;;;;;;;;;;4954207;29;20235;-72
2022/06/26 15:03:02;;;;;;;1999.90;999.90;;;;;;;;;;4954071;29;20694;-71
2022/06/26 15:05:49;;;;;;;1999.90;999.90;;;;;;;;;;4954466;29;20350;-71
2022/06/26 15:08:34;;;;;;;1999.90;999.90;;;;;;;;;;4953769;29;20212;-71
2022/06/26 15:11:19;;;;;;;1999.90;999.90;;;;;;;;;;4953962;28;20712;-71
2022/06/26 15:14:06;;;;;;;1999.90;999.90;;;;;;;;;;4957311;29;20424;-71
2022/06/26 15:16:50;;;;;;;1999.90;999.90;;;;;;;;;;4958070;29;20217;-71
2022/06/26 15:19:35;;;;;;;1999.90;999.90;;;;;;;;;;4957601;29;20229;-70
2022/06/26 15:22:20;;;;;;;1999.90;999.90;;;;;;;;;;4957774;29;20366;-71
2022/06/26 15:25:05;;;;;;;1999.90;999.90;;;;;;;;;;4957824;29;20205;-71
2022/06/26 15:27:50;;;;;;;1999.90;999.90;;;;;;;;;;4957657;29;20239;-70
2022/06/26 15:30:37;;;;;;;1999.90;999.90;;;;;;;;;;4957899;29;20601;-70
2022/06/26 15:33:22;;;;;;;1999.90;999.90;;;;;;;;;;4958394;29;20205;-71
2022/06/26 15:36:07;;;;;;;1999.90;999.90;;;;;;;;;;4958097;29;20205;-71
2022/06/26 15:38:52;;;;;;;1999.90;999.90;;;;;;;;;;4958113;29;20297;-70
2022/06/26 15:41:37;;;;;;;1999.90;999.90;;;;;;;;;;4957857;29;20256;-70
2022/06/26 15:44:22;;;;;;;1999.90;999.90;;;;;;;;;;4956306;29;20432;-71
2022/06/26 15:47:08;;;;;;;1999.90;999.90;;;;;;;;;;4957089;29;20214;-71
2022/06/26 15:49:53;;;;;;;1999.90;999.90;;;;;;;;;;4957037;29;20723;-71
2022/06/26 15:52:38;;;;;;;1999.90;999.90;;;;;;;;;;4957151;29;20270;-71